createdAt,value
2023-01-25T00:03:35.486Z,48.20
2023-01-25T00:08:42.887Z,46.87
2023-01-25T00:13:50.500Z,47.10
2023-01-25T00:18:56.917Z,45.63
2023-01-25T00:24:05.141Z,46.65
2023-01-25T00:29:15.450Z,46.20
2023-01-25T00:34:32.528Z,46.50
2023-01-25T00:39:39.892Z,46.30
2023-01-25T00:44:49.891Z,48.40
2023-01-25T00:49:57.106Z,46.57
2023-01-25T00:55:04.647Z,46.73
2023-01-25T01:00:12.726Z,46.70
2023-01-25T01:05:20.000Z,45.75
2023-01-25T01:10:28.637Z,46.43
2023-01-25T01:15:40.026Z,46.77
2023-01-25T01:20:56.834Z,45.93
2023-01-25T01:26:06.064Z,46.90
2023-01-25T01:31:24.569Z,45.63
2023-01-25T01:36:32.821Z,48.23
2023-01-25T01:41:40.707Z,46.43
2023-01-25T01:46:58.689Z,46.20
2023-01-25T01:52:13.531Z,46.60
2023-01-25T01:57:34.570Z,46.50
2023-01-25T02:02:42.809Z,45.97
2023-01-25T02:07:50.828Z,46.47
2023-01-25T02:12:58.824Z,45.50
2023-01-25T02:18:06.337Z,45.17
2023-01-25T02:23:27.917Z,47.10
2023-01-25T02:28:54.526Z,45.73
2023-01-25T02:34:01.436Z,46.60
2023-01-25T02:39:20.674Z,46.83
2023-01-25T02:44:34.441Z,45.75
2023-01-25T02:49:41.705Z,47.95
2023-01-25T02:54:48.978Z,46.53
2023-01-25T02:59:56.389Z,45.30
2023-01-25T03:05:03.768Z,46.17
2023-01-25T03:10:12.332Z,47.47
2023-01-25T03:15:19.775Z,46.67
2023-01-25T03:20:26.358Z,46.70
2023-01-25T03:25:33.329Z,47.70
2023-01-25T03:35:46.040Z,46.40
2023-01-25T03:40:53.362Z,49.67
2023-01-25T03:51:10.023Z,50.30
2023-01-25T04:01:27.418Z,57.75
2023-01-25T04:06:34.775Z,53.43
2023-01-25T04:11:41.909Z,48.20
2023-01-25T04:16:50.070Z,48.53
2023-01-25T04:21:57.500Z,47.33
2023-01-25T04:27:04.677Z,47.43
2023-01-25T04:32:12.913Z,47.97
2023-01-25T04:37:19.602Z,46.90
2023-01-25T04:42:26.557Z,46.73
2023-01-25T04:47:33.962Z,47.98
2023-01-25T04:52:41.327Z,47.00
2023-01-25T04:57:51.209Z,49.23
2023-01-25T05:02:58.366Z,48.90
2023-01-25T05:08:05.105Z,49.67
2023-01-25T05:13:13.220Z,49.73
2023-01-25T05:18:21.661Z,49.50
2023-01-25T05:23:28.733Z,47.93
2023-01-25T05:28:35.989Z,47.70
2023-01-25T05:33:44.660Z,48.97
2023-01-25T05:38:53.082Z,46.90
2023-01-25T05:43:59.966Z,46.57
2023-01-25T05:49:07.688Z,47.07
2023-01-25T05:54:18.190Z,46.40
2023-01-25T05:59:26.649Z,46.73
2023-01-25T06:04:33.909Z,46.05
2023-01-25T06:09:41.114Z,46.80
2023-01-25T06:14:48.446Z,47.37
2023-01-25T06:19:55.465Z,47.00
2023-01-25T06:25:02.346Z,47.70
2023-01-25T06:30:10.568Z,47.83
2023-01-25T06:35:20.109Z,47.40
2023-01-25T06:40:29.598Z,48.30
2023-01-25T06:45:36.990Z,47.20
2023-01-25T06:50:44.592Z,47.50
2023-01-25T06:56:06.228Z,47.10
2023-01-25T07:01:21.266Z,48.17
2023-01-25T07:06:32.369Z,47.43
2023-01-25T07:11:40.184Z,46.27
2023-01-25T07:16:47.336Z,45.73
2023-01-25T07:27:00.176Z,46.80
2023-01-25T07:32:07.378Z,47.80
2023-01-25T07:37:14.797Z,46.33
2023-01-25T07:42:22.235Z,46.67
2023-01-25T07:47:29.969Z,47.05
2023-01-25T07:52:36.915Z,47.20
2023-01-25T07:57:43.890Z,48.40
2023-01-25T08:02:54.930Z,48.60
2023-01-25T08:08:01.649Z,50.00
2023-01-25T08:13:09.255Z,49.97
2023-01-25T08:18:15.792Z,51.57
2023-01-25T08:28:28.427Z,50.25
2023-01-25T08:38:41.719Z,47.85
2023-01-25T08:43:49.795Z,47.48
2023-01-25T08:48:59.949Z,47.47
2023-01-25T08:54:09.612Z,47.90
2023-01-25T08:59:16.828Z,47.67
2023-01-25T09:04:25.675Z,49.08
2023-01-25T09:09:32.262Z,46.65
2023-01-25T09:14:40.977Z,48.20
2023-01-25T09:24:56.718Z,49.63
2023-01-25T09:30:04.378Z,49.70
2023-01-25T09:35:11.429Z,49.50
2023-01-25T09:40:24.105Z,49.93
2023-01-25T09:45:38.621Z,50.67
2023-01-25T09:51:16.607Z,50.53
2023-01-25T09:56:35.341Z,49.67
2023-01-25T10:02:06.124Z,50.90
2023-01-25T10:07:36.255Z,51.42
2023-01-25T10:12:43.274Z,51.40
2023-01-25T10:18:07.231Z,51.87
2023-01-25T10:23:53.543Z,51.77
2023-01-25T10:29:29.693Z,51.13
2023-01-25T10:34:55.070Z,51.93
2023-01-25T10:39:57.809Z,53.73
2023-01-25T10:45:15.713Z,52.20
2023-01-25T10:50:55.278Z,52.25
2023-01-25T10:56:07.398Z,52.87
2023-01-25T11:01:30.548Z,54.30
2023-01-25T11:06:44.201Z,53.67
2023-01-25T11:12:03.814Z,55.47
2023-01-25T11:17:25.653Z,53.37
2023-01-25T11:22:32.771Z,55.60
2023-01-25T11:27:39.397Z,55.03
2023-01-25T11:32:46.527Z,53.60
2023-01-25T11:38:16.029Z,53.27
2023-01-25T11:43:58.020Z,55.13
2023-01-25T11:49:14.803Z,54.70
2023-01-25T11:59:58.314Z,56.40
2023-01-25T12:05:21.491Z,55.47
2023-01-25T12:10:34.014Z,56.50
2023-01-25T12:16:02.973Z,55.28
2023-01-25T12:21:41.618Z,55.30
2023-01-25T12:26:59.609Z,53.33
2023-01-25T12:32:22.341Z,53.73
2023-01-25T12:37:33.736Z,53.00
2023-01-25T12:42:48.211Z,54.30
2023-01-25T12:48:24.199Z,55.47
2023-01-25T12:53:35.582Z,54.93
2023-01-25T12:59:11.743Z,54.25
2023-01-25T13:04:51.749Z,52.75
2023-01-25T13:10:13.216Z,52.27
2023-01-25T13:15:38.914Z,52.78
2023-01-25T13:20:50.327Z,55.17
2023-01-25T13:26:25.966Z,53.23
2023-01-25T13:31:52.792Z,53.33
2023-01-25T13:36:58.344Z,54.40
2023-01-25T13:42:11.788Z,54.93
2023-01-25T13:47:29.392Z,53.33
2023-01-25T13:57:44.563Z,54.27
2023-01-25T14:02:55.840Z,54.00
2023-01-25T14:08:04.227Z,54.53
2023-01-25T14:13:15.483Z,54.63
2023-01-25T14:18:23.696Z,54.80
2023-01-25T14:23:34.501Z,53.83
2023-01-25T14:28:51.231Z,52.47
2023-01-25T14:33:57.853Z,55.10
2023-01-25T14:39:08.083Z,57.23
2023-01-25T14:44:17.933Z,55.83
2023-01-25T14:49:28.556Z,59.20
2023-01-25T14:54:41.072Z,57.77
2023-01-25T14:59:51.479Z,53.67
2023-01-25T15:05:18.415Z,54.73
2023-01-25T15:10:30.545Z,54.23
2023-01-25T15:15:38.728Z,53.57
2023-01-25T15:20:45.868Z,55.87
2023-01-25T15:25:58.837Z,53.58
2023-01-25T15:31:07.520Z,56.33
2023-01-25T15:36:17.773Z,54.50
2023-01-25T15:41:25.011Z,55.15
2023-01-25T15:46:33.793Z,58.68
2023-01-25T15:51:40.947Z,55.07
2023-01-25T15:56:52.869Z,55.87
2023-01-25T16:02:00.591Z,55.67
2023-01-25T16:07:07.829Z,56.00
2023-01-25T16:12:15.866Z,55.43
2023-01-25T16:17:24.981Z,54.50
2023-01-25T16:22:33.254Z,57.77
2023-01-25T16:27:40.291Z,57.20
2023-01-25T16:37:54.258Z,62.37
2023-01-25T16:43:01.607Z,58.37
2023-01-25T16:48:10.903Z,56.53
2023-01-25T16:53:17.974Z,60.98
2023-01-25T16:58:25.577Z,57.63
2023-01-25T17:03:32.222Z,57.10
2023-01-25T17:08:39.528Z,54.75
2023-01-25T17:13:50.608Z,56.23
2023-01-25T17:19:01.408Z,57.87
2023-01-25T17:24:10.011Z,60.17
2023-01-25T17:29:16.925Z,62.93
2023-01-25T17:34:24.799Z,57.62
2023-01-25T17:39:33.331Z,58.13
2023-01-25T17:44:40.710Z,56.67
2023-01-25T17:49:47.379Z,59.13
2023-01-25T17:54:54.368Z,59.43
2023-01-25T18:00:02.504Z,76.53
2023-01-25T18:05:11.315Z,58.00
2023-01-25T18:10:19.256Z,68.95
2023-01-25T18:15:27.219Z,77.37
2023-01-25T18:20:34.590Z,71.70
2023-01-25T18:26:14.725Z,85.53
2023-01-25T18:31:55.908Z,59.03
2023-01-25T18:37:06.606Z,65.37
2023-01-25T18:42:14.999Z,75.87
2023-01-25T18:47:24.796Z,71.77
2023-01-25T18:52:32.672Z,84.45
2023-01-25T18:57:40.337Z,67.17
2023-01-25T19:02:47.063Z,63.17
2023-01-25T19:07:54.125Z,65.43
2023-01-25T19:13:01.900Z,70.73
2023-01-25T19:18:09.117Z,89.07
2023-01-25T19:23:16.355Z,61.00
2023-01-25T19:28:24.431Z,74.17
2023-01-25T19:33:32.024Z,71.20
2023-01-25T19:38:41.631Z,69.20
2023-01-25T19:43:48.861Z,70.73
2023-01-25T19:48:57.177Z,103.43
2023-01-25T19:54:11.557Z,77.13
2023-01-25T19:59:26.114Z,94.33
2023-01-25T20:04:35.337Z,70.00
2023-01-25T20:09:42.086Z,71.00
2023-01-25T20:14:48.907Z,68.07
2023-01-25T20:19:55.807Z,66.45
2023-01-25T20:25:03.854Z,72.77
2023-01-25T20:30:12.351Z,65.57
2023-01-25T20:35:19.542Z,54.75
2023-01-25T20:40:26.760Z,62.37
2023-01-25T20:45:35.077Z,56.53
2023-01-25T20:50:43.669Z,57.77
2023-01-25T20:55:56.193Z,60.93
2023-01-25T21:01:02.834Z,54.90
2023-01-25T21:06:10.431Z,57.93
2023-01-25T21:11:17.592Z,69.80
2023-01-25T21:16:24.993Z,68.00
2023-01-25T21:21:36.199Z,65.05
2023-01-25T21:26:45.686Z,58.40
2023-01-25T21:31:54.550Z,67.10
2023-01-25T21:37:01.901Z,59.27
2023-01-25T21:42:11.151Z,65.33
2023-01-25T21:47:29.914Z,65.13
2023-01-25T21:52:26.855Z,98.60
2023-01-25T21:57:33.711Z,65.10
2023-01-25T22:02:40.554Z,62.60
2023-01-25T22:07:47.298Z,57.90
2023-01-25T22:12:54.594Z,75.60
2023-01-25T22:18:02.695Z,55.77
2023-01-25T22:23:09.208Z,70.23
2023-01-25T22:28:18.692Z,56.23
2023-01-25T22:33:26.161Z,97.77
2023-01-25T22:38:32.851Z,90.10
2023-01-25T22:43:40.729Z,59.40
2023-01-25T22:48:49.162Z,63.33
2023-01-25T22:54:01.120Z,68.73
2023-01-25T22:59:08.312Z,72.40
2023-01-25T23:04:16.292Z,82.43
2023-01-25T23:09:22.933Z,72.42
2023-01-25T23:19:53.669Z,75.50
2023-01-25T23:25:00.593Z,73.33
2023-01-25T23:35:15.418Z,85.50
2023-01-25T23:40:23.067Z,58.30
2023-01-25T23:45:29.849Z,73.22
2023-01-25T23:50:37.000Z,108.73
2023-01-25T23:55:45.551Z,68.77
